Time;durP1;ratioP1;P1;durP2;ratioP2;P2;SDS_P1;SDS_P2;PMS_P1;PMS_P2;Temp;Humidity;BMP_temperature;BMP_pressure;BME280_temperature;BME280_humidity;BME280_pressure;Samples;Min_cycle;Max_cycle;Signal;HPM_P1;HPM_P2
2023/04/02 00:01:38;;;;;;;;;;;;;;;9.36;54.48;93756.69;5041450;23;19925;-75
2023/04/02 00:03:43;;;;;;;;;;;;;;;9.23;55.57;93766.94;5067096;23;19920;-75
2023/04/02 00:05:51;;;;;;;;;;;;;;;9.29;55.10;93747.94;5068223;23;19956;-76
2023/04/02 00:07:52;;;;;;;;;;;;;;;9.38;54.67;93756.53;5041856;23;19965;-77
2023/04/02 00:09:54;;;;;;;;;;;;;;;9.35;54.40;93752.44;5067075;23;20093;-76
2023/04/02 00:11:56;;;;;;;;;;;;;;;9.37;54.73;93745.25;5067021;23;20344;-76
2023/04/02 00:13:59;;;;;;;;;;;;;;;9.36;55.27;93743.63;5041061;23;19929;-73
2023/04/02 00:16:02;;;;;;;;;;;;;;;9.41;54.57;93743.09;5038142;23;20248;-71
2023/04/02 00:18:04;;;;;;;;;;;;;;;9.51;54.46;93743.69;5066749;23;19921;-73
2023/04/02 00:20:06;;;;;;;;;;;;;;;9.44;54.74;93750.59;5017452;23;19957;-72
2023/04/02 00:22:11;;;;;;;;;;;;;;;9.51;54.40;93750.72;5041167;23;20114;-72
2023/04/02 00:24:13;;;;;;;;;;;;;;;9.50;54.18;93756.94;5041006;23;20356;-71
2023/04/02 00:26:35;;;;;;;;;;;;;;;9.40;53.75;93755.38;5040830;23;19921;-71
2023/04/02 00:28:37;;;;;;;;;;;;;;;9.33;54.69;93746.56;5041433;23;19932;-73
2023/04/02 00:30:44;;;;;;;;;;;;;;;9.30;54.18;93748.75;5065177;23;19972;-73
2023/04/02 00:32:46;;;;;;;;;;;;;;;9.33;54.30;93749.19;5067012;23;19961;-72
2023/04/02 00:34:47;;;;;;;;;;;;;;;9.33;53.94;93743.16;5066257;23;19960;-72
2023/04/02 00:36:49;;;;;;;;;;;;;;;9.34;53.68;93748.22;5066584;23;19948;-72
2023/04/02 00:38:51;;;;;;;;;;;;;;;9.39;53.37;93732.81;5041288;23;20320;-72
2023/04/02 00:40:54;;;;;;;;;;;;;;;9.38;53.77;93740.84;5040212;23;19921;-72
2023/04/02 00:42:57;;;;;;;;;;;;;;;9.40;53.04;93747.53;5041094;23;19921;-72
2023/04/02 00:44:59;;;;;;;;;;;;;;;9.39;52.56;93740.66;5039502;23;19926;-71
2023/04/02 00:47:03;;;;;;;;;;;;;;;9.48;52.92;93745.81;5016813;23;19925;-73
2023/04/02 00:49:07;;;;;;;;;;;;;;;9.53;52.75;93733.03;5039699;23;20313;-73
2023/04/02 00:51:12;;;;;;;;;;;;;;;9.51;53.07;93742.88;5041230;23;19997;-71
2023/04/02 00:53:21;;;;;;;;;;;;;;;9.53;52.58;93735.66;5040526;23;19985;-71
2023/04/02 00:55:34;;;;;;;;;;;;;;;9.58;52.53;93751.63;5039253;23;19921;-73
2023/04/02 00:57:36;;;;;;;;;;;;;;;9.60;53.16;93750.47;5040320;23;19953;-71
2023/04/02 00:59:46;;;;;;;;;;;;;;;9.48;52.95;93744.03;5065143;23;20185;-71
2023/04/02 01:01:53;;;;;;;;;;;;;;;9.47;53.16;93747.63;5040774;23;19925;-71
2023/04/02 01:03:58;;;;;;;;;;;;;;;9.52;52.75;93757.56;5065954;23;19947;-71
2023/04/02 01:06:02;;;;;;;;;;;;;;;9.57;52.90;93739.53;5067135;23;20249;-76
2023/04/02 01:08:06;;;;;;;;;;;;;;;9.62;52.85;93737.22;5067640;23;20376;-76
2023/04/02 01:10:16;;;;;;;;;;;;;;;9.60;52.53;93729.53;5066429;23;19924;-76
2023/04/02 01:12:18;;;;;;;;;;;;;;;9.50;53.02;93736.81;5040779;23;19949;-75
2023/04/02 01:14:22;;;;;;;;;;;;;;;9.49;52.83;93731.78;5065170;23;19921;-71
2023/04/02 01:16:31;;;;;;;;;;;;;;;9.43;53.03;93739.31;5065797;23;20247;-78
2023/04/02 01:18:40;;;;;;;;;;;;;;;9.48;52.69;93735.38;5040183;23;19932;-76
2023/04/02 01:20:50;;;;;;;;;;;;;;;9.59;52.45;93730.56;5041162;23;19921;-75
2023/04/02 01:22:58;;;;;;;;;;;;;;;9.60;52.56;93752.28;5040786;23;20453;-74
2023/04/02 01:25:00;;;;;;;;;;;;;;;9.59;52.43;93742.78;5065960;23;20336;-76
2023/04/02 01:27:22;;;;;;;;;;;;;;;9.65;52.53;93729.00;5067175;23;19927;-77
2023/04/02 01:29:24;;;;;;;;;;;;;;;9.71;51.91;93751.03;5065239;23;19925;-77
2023/04/02 01:31:26;;;;;;;;;;;;;;;9.68;52.03;93743.53;5066065;23;19921;-77
2023/04/02 01:33:29;;;;;;;;;;;;;;;9.70;51.64;93744.16;5066692;23;19925;-76
2023/04/02 01:35:31;;;;;;;;;;;;;;;9.74;51.57;93746.25;5040715;23;19933;-78
2023/04/02 01:37:33;;;;;;;;;;;;;;;9.70;51.40;93747.63;5041149;23;19921;-76
2023/04/02 01:39:38;;;;;;;;;;;;;;;9.76;51.88;93749.50;5040322;23;19968;-74
2023/04/02 01:41:43;;;;;;;;;;;;;;;9.81;51.24;93749.81;5040323;23;19992;-75
2023/04/02 01:44:04;;;;;;;;;;;;;;;9.77;51.41;93747.72;5066573;23;19925;-77
2023/04/02 01:46:25;;;;;;;;;;;;;;;9.71;51.46;93759.69;5064926;23;19920;-77
2023/04/02 01:48:28;;;;;;;;;;;;;;;9.62;51.77;93756.34;5066022;23;20276;-77
2023/04/02 01:50:35;;;;;;;;;;;;;;;9.66;51.50;93748.97;5066412;23;19921;-76
2023/04/02 01:52:39;;;;;;;;;;;;;;;9.70;51.31;93731.09;5066184;23;19929;-75
2023/04/02 01:54:41;;;;;;;;;;;;;;;9.71;51.64;93741.38;5065678;23;19921;-80
2023/04/02 01:56:42;;;;;;;;;;;;;;;9.74;51.82;93738.41;5065129;23;19925;-76
2023/04/02 01:58:44;;;;;;;;;;;;;;;9.80;51.63;93724.63;5016684;23;20352;-77
2023/04/02 02:00:50;;;;;;;;;;;;;;;9.78;51.24;93737.06;5037902;23;20448;-77
2023/04/02 02:02:51;;;;;;;;;;;;;;;9.69;51.23;93730.28;5017034;23;19953;-78
2023/04/02 02:04:53;;;;;;;;;;;;;;;9.66;51.36;93733.28;5040870;23;20264;-77
2023/04/02 02:06:57;;;;;;;;;;;;;;;9.70;51.50;93729.31;5040049;23;20427;-77
2023/04/02 02:09:02;;;;;;;;;;;;;;;9.71;51.82;93730.13;5041124;23;19925;-77
2023/04/02 02:11:04;;;;;;;;;;;;;;;9.68;52.01;93731.28;5040307;23;19985;-76
2023/04/02 02:13:06;;;;;;;;;;;;;;;9.70;51.54;93738.94;5040467;23;19922;-76
2023/04/02 02:15:12;;;;;;;;;;;;;;;9.71;51.79;93736.16;5064211;23;20243;-75
2023/04/02 02:17:15;;;;;;;;;;;;;;;9.77;51.20;93739.88;5016125;23;20285;-76
2023/04/02 02:19:35;;;;;;;;;;;;;;;9.69;52.04;93738.13;5040870;23;19925;-77
2023/04/02 02:21:41;;;;;;;;;;;;;;;9.54;53.09;93745.13;5040374;23;19921;-75
2023/04/02 02:23:42;;;;;;;;;;;;;;;9.01;56.17;93742.38;5040065;23;19928;-75
2023/04/02 02:25:44;;;;;;;;;;;;;;;8.32;59.64;93750.84;5039766;23;19921;-79
2023/04/02 02:27:47;;;;;;;;;;;;;;;8.02;59.94;93755.00;5040818;23;20384;-76
2023/04/02 02:29:50;;;;;;;;;;;;;;;7.85;60.97;93759.47;5038310;23;20047;-77
2023/04/02 02:31:52;;;;;;;;;;;;;;;7.83;60.83;93756.19;5065930;23;19945;-80
2023/04/02 02:33:55;;;;;;;;;;;;;;;7.66;62.12;93758.00;5040025;23;19949;-78
2023/04/02 02:35:59;;;;;;;;;;;;;;;7.49;62.29;93753.78;5065984;23;19928;-76
2023/04/02 02:38:21;;;;;;;;;;;;;;;7.54;61.90;93754.91;5041328;23;19925;-78
2023/04/02 02:40:26;;;;;;;;;;;;;;;7.85;60.52;93754.25;5010444;23;20380;-75
2023/04/02 02:42:30;;;;;;;;;;;;;;;8.14;58.20;93742.44;5042146;23;20248;-76
2023/04/02 02:44:32;;;;;;;;;;;;;;;8.40;56.54;93739.56;5016352;23;19933;-77
2023/04/02 02:46:35;;;;;;;;;;;;;;;8.60;56.00;93737.38;5039894;23;19921;-78
2023/04/02 02:48:36;;;;;;;;;;;;;;;8.74;55.30;93747.13;5066465;23;19948;-75
2023/04/02 02:50:38;;;;;;;;;;;;;;;8.87;55.11;93733.50;5040718;23;19921;-78
2023/04/02 02:52:41;;;;;;;;;;;;;;;8.90;54.85;93734.94;5040495;23;19966;-76
2023/04/02 02:54:44;;;;;;;;;;;;;;;8.97;54.45;93733.25;5040148;23;19925;-75
2023/04/02 02:56:47;;;;;;;;;;;;;;;9.11;54.18;93739.56;5065060;23;19921;-76
2023/04/02 02:58:50;;;;;;;;;;;;;;;9.15;53.79;93740.84;5065673;23;20327;-75
2023/04/02 03:00:51;;;;;;;;;;;;;;;9.20;53.51;93741.13;5038517;23;19921;-72
2023/04/02 03:02:53;;;;;;;;;;;;;;;9.26;53.42;93742.25;5039758;23;19961;-71
2023/04/02 03:04:55;;;;;;;;;;;;;;;9.25;53.12;93744.06;5040091;23;19969;-71
2023/04/02 03:06:56;;;;;;;;;;;;;;;9.34;52.89;93744.81;5040620;23;19929;-72
2023/04/02 03:09:03;;;;;;;;;;;;;;;9.40;52.54;93744.09;5065352;23;19925;-72
2023/04/02 03:11:11;;;;;;;;;;;;;;;9.43;52.50;93744.56;5015615;23;20512;-72
2023/04/02 03:13:13;;;;;;;;;;;;;;;9.49;52.25;93748.28;5040100;23;20415;-71
2023/04/02 03:15:26;;;;;;;;;;;;;;;9.49;52.03;93748.28;5063355;23;19921;-71
2023/04/02 03:17:29;;;;;;;;;;;;;;;9.49;52.09;93744.84;5065137;23;20309;-70
2023/04/02 03:19:51;;;;;;;;;;;;;;;9.51;52.17;93748.91;5039722;23;19992;-72
2023/04/02 03:21:54;;;;;;;;;;;;;;;9.50;52.18;93738.63;5039947;23;20052;-72
2023/04/02 03:23:56;;;;;;;;;;;;;;;9.51;52.64;93746.31;5064156;23;20491;-71
2023/04/02 03:25:59;;;;;;;;;;;;;;;9.57;52.12;93750.84;5065421;23;19921;-72
2023/04/02 03:28:02;;;;;;;;;;;;;;;9.52;52.02;93760.19;5015776;23;19946;-72
2023/04/02 03:30:20;;;;;;;;;;;;;;;9.49;51.79;93755.31;5038772;23;19922;-72
2023/04/02 03:32:29;;;;;;;;;;;;;;;9.46;52.52;93747.81;5039359;23;19921;-72
2023/04/02 03:34:32;;;;;;;;;;;;;;;9.48;52.15;93748.44;5016218;23;19947;-75
2023/04/02 03:36:37;;;;;;;;;;;;;;;9.50;52.46;93757.72;5016691;23;19933;-78
2023/04/02 03:38:40;;;;;;;;;;;;;;;9.42;52.11;93761.25;5018114;23;19926;-72
2023/04/02 03:40:59;;;;;;;;;;;;;;;9.54;51.97;93760.81;5041232;23;19925;-72
2023/04/02 03:43:05;;;;;;;;;;;;;;;9.58;52.19;93756.88;5041524;23;19926;-72
2023/04/02 03:45:06;;;;;;;;;;;;;;;9.66;52.11;93762.03;5039097;23;19940;-72
2023/04/02 03:47:13;;;;;;;;;;;;;;;9.63;52.27;93759.75;5067088;23;19925;-71
2023/04/02 03:49:18;;;;;;;;;;;;;;;9.63;51.89;93771.03;5041706;23;20404;-76
2023/04/02 03:51:23;;;;;;;;;;;;;;;9.67;52.25;93755.81;5067346;23;20213;-77
2023/04/02 03:53:24;;;;;;;;;;;;;;;9.70;51.40;93754.63;5067063;23;19924;-74
2023/04/02 03:55:27;;;;;;;;;;;;;;;9.69;51.44;93748.59;5041117;23;19952;-75
2023/04/02 03:57:29;;;;;;;;;;;;;;;9.69;51.65;93755.63;5040840;23;19933;-72
2023/04/02 03:59:43;;;;;;;;;;;;;;;9.66;51.99;93763.81;5065186;23;19920;-72
2023/04/02 04:02:06;;;;;;;;;;;;;;;9.67;51.77;93750.56;5042286;23;19954;-73
2023/04/02 04:04:09;;;;;;;;;;;;;;;9.77;51.50;93753.75;5067242;23;19921;-72
2023/04/02 04:06:15;;;;;;;;;;;;;;;9.83;51.70;93760.09;5041407;23;20421;-72
2023/04/02 04:08:21;;;;;;;;;;;;;;;9.87;51.19;93757.91;5019268;23;19929;-72
2023/04/02 04:10:24;;;;;;;;;;;;;;;9.90;51.28;93763.63;5041780;23;19961;-74
2023/04/02 04:12:27;;;;;;;;;;;;;;;9.90;51.31;93762.81;5017958;23;19944;-72
2023/04/02 04:14:28;;;;;;;;;;;;;;;9.88;50.86;93762.97;5064317;23;19920;-73
2023/04/02 04:16:39;;;;;;;;;;;;;;;9.72;51.65;93769.19;5041300;23;19987;-73
2023/04/02 04:18:42;;;;;;;;;;;;;;;9.70;51.82;93768.53;5041498;23;20309;-73
2023/04/02 04:20:46;;;;;;;;;;;;;;;9.64;52.33;93782.31;5041602;23;19921;-74
2023/04/02 04:22:48;;;;;;;;;;;;;;;9.50;55.25;93772.63;5041691;23;19921;-71
2023/04/02 04:24:50;;;;;;;;;;;;;;;8.80;57.65;93779.59;5066178;23;19948;-71
2023/04/02 04:27:02;;;;;;;;;;;;;;;8.04;61.26;93789.56;5066906;23;19925;-73
2023/04/02 04:29:23;;;;;;;;;;;;;;;7.74;62.90;93788.44;5067242;23;20007;-73
2023/04/02 04:31:45;;;;;;;;;;;;;;;7.83;62.60;93797.91;5066985;23;19925;-71
2023/04/02 04:33:49;;;;;;;;;;;;;;;7.59;63.14;93790.91;5066749;23;19968;-74
2023/04/02 04:35:54;;;;;;;;;;;;;;;7.54;64.13;93796.59;5041836;23;19921;-73
2023/04/02 04:37:57;;;;;;;;;;;;;;;7.47;64.40;93802.66;5066873;23;19925;-72
2023/04/02 04:40:06;;;;;;;;;;;;;;;7.37;64.56;93797.56;5041058;23;19925;-75
2023/04/02 04:42:09;;;;;;;;;;;;;;;7.42;64.42;93802.28;5017570;23;19936;-74
2023/04/02 04:44:17;;;;;;;;;;;;;;;7.52;63.92;93805.56;5041382;23;20364;-73
2023/04/02 04:46:20;;;;;;;;;;;;;;;7.69;63.85;93804.59;5066952;23;19921;-72
2023/04/02 04:48:25;;;;;;;;;;;;;;;7.84;62.94;93802.16;5067097;23;19925;-75
2023/04/02 04:50:31;;;;;;;;;;;;;;;7.97;62.97;93799.03;5042025;23;19989;-73
2023/04/02 04:52:33;;;;;;;;;;;;;;;8.04;62.20;93812.22;5041560;23;19922;-75
2023/04/02 04:54:36;;;;;;;;;;;;;;;8.08;62.82;93795.28;5066056;23;19945;-73
2023/04/02 04:56:37;;;;;;;;;;;;;;;8.13;62.18;93804.25;5040493;23;19921;-76
2023/04/02 04:58:58;;;;;;;;;;;;;;;8.05;62.32;93812.06;5040901;23;20248;-74
2023/04/02 05:00:59;;;;;;;;;;;;;;;7.96;63.19;93805.25;5065869;23;20263;-73
2023/04/02 05:03:10;;;;;;;;;;;;;;;7.92;63.11;93816.97;5066908;23;19943;-71
2023/04/02 05:05:16;;;;;;;;;;;;;;;7.98;63.28;93804.09;5067573;23;19924;-74
2023/04/02 05:07:18;;;;;;;;;;;;;;;7.94;62.74;93805.41;5041765;23;19921;-73
2023/04/02 05:09:32;;;;;;;;;;;;;;;8.00;62.63;93809.13;5067042;23;19953;-73
2023/04/02 05:11:53;;;;;;;;;;;;;;;7.98;62.83;93811.13;5071366;23;19945;-78
2023/04/02 05:13:59;;;;;;;;;;;;;;;8.03;61.90;93803.59;5025229;23;20328;-77
2023/04/02 05:16:10;;;;;;;;;;;;;;;8.00;62.44;93804.75;5019120;23;19922;-78
2023/04/02 05:18:14;;;;;;;;;;;;;;;8.05;62.98;93812.06;5068931;23;20346;-78
2023/04/02 05:20:16;;;;;;;;;;;;;;;8.24;62.83;93803.06;5069360;23;19921;-78
2023/04/02 05:22:24;;;;;;;;;;;;;;;8.18;61.77;93812.38;5068982;23;20008;-79
2023/04/02 05:24:38;;;;;;;;;;;;;;;7.96;62.98;93824.31;5068171;23;19931;-81
2023/04/02 05:26:41;;;;;;;;;;;;;;;8.16;62.76;93809.13;5069445;23;20165;-81
2023/04/02 05:29:01;;;;;;;;;;;;;;;8.24;61.64;93817.91;5044707;23;19922;-78
2023/04/02 05:31:06;;;;;;;;;;;;;;;8.24;62.37;93820.50;5069017;23;19977;-81
2023/04/02 05:33:22;;;;;;;;;;;;;;;8.29;61.29;93823.44;5044583;23;19921;-78
2023/04/02 05:35:26;;;;;;;;;;;;;;;8.11;61.84;93824.47;5043526;23;19922;-80
2023/04/02 05:37:28;;;;;;;;;;;;;;;8.07;62.01;93830.97;5069030;23;20172;-77
2023/04/02 05:39:31;;;;;;;;;;;;;;;8.26;61.94;93832.44;5044011;23;19996;-81
2023/04/02 05:41:42;;;;;;;;;;;;;;;8.41;61.07;93832.59;5069504;23;19921;-79
2023/04/02 05:43:45;;;;;;;;;;;;;;;8.51;60.69;93830.59;5019741;23;19932;-77
2023/04/02 05:45:50;;;;;;;;;;;;;;;8.55;60.97;93833.69;5068806;23;19928;-80
2023/04/02 05:47:53;;;;;;;;;;;;;;;8.55;60.30;93825.84;5044773;23;19921;-80
2023/04/02 05:49:55;;;;;;;;;;;;;;;8.71;61.41;93824.97;5043696;23;19991;-79
2023/04/02 05:51:57;;;;;;;;;;;;;;;8.90;60.48;93829.78;5043687;23;19925;-75
2023/04/02 05:54:00;;;;;;;;;;;;;;;8.98;59.95;93839.41;5044560;23;19955;-79
2023/04/02 05:56:14;;;;;;;;;;;;;;;8.88;59.38;93838.78;5044044;23;19921;-79
2023/04/02 05:58:18;;;;;;;;;;;;;;;8.91;59.38;93841.88;5044035;23;19989;-79
2023/04/02 06:00:36;;;;;;;;;;;;;;;8.63;59.30;93845.91;5025566;23;19969;-80
2023/04/02 06:02:51;;;;;;;;;;;;;;;8.30;60.44;93841.56;5071428;23;19921;-80
2023/04/02 06:05:03;;;;;;;;;;;;;;;8.37;59.18;93846.91;5047177;23;19988;-81
2023/04/02 06:07:13;;;;;;;;;;;;;;;8.47;59.06;93838.91;5071164;23;20391;-78
2023/04/02 06:09:16;;;;;;;;;;;;;;;8.59;59.10;93843.63;5044430;23;19946;-80
2023/04/02 06:11:23;;;;;;;;;;;;;;;8.79;58.66;93835.38;5020819;23;19925;-79
2023/04/02 06:13:25;;;;;;;;;;;;;;;8.93;57.42;93847.75;5045195;23;20404;-82
2023/04/02 06:15:26;;;;;;;;;;;;;;;9.10;57.21;93839.81;5043856;23;19928;-79
2023/04/02 06:17:28;;;;;;;;;;;;;;;9.20;57.18;93849.06;5069461;23;20500;-79
2023/04/02 06:19:31;;;;;;;;;;;;;;;9.45;56.43;93843.72;5069689;23;19953;-79
2023/04/02 06:21:32;;;;;;;;;;;;;;;9.72;56.64;93834.56;5069631;23;19968;-81
2023/04/02 06:23:40;;;;;;;;;;;;;;;9.76;55.26;93832.38;5043726;23;19921;-78
2023/04/02 06:25:42;;;;;;;;;;;;;;;9.82;55.65;93842.97;5071667;23;19976;-79
2023/04/02 06:27:44;;;;;;;;;;;;;;;10.13;54.74;93836.84;5046337;23;19925;-80
2023/04/02 06:29:45;;;;;;;;;;;;;;;10.15;54.18;93841.88;5070196;23;19991;-81
2023/04/02 06:31:51;;;;;;;;;;;;;;;10.31;54.95;93839.16;5071470;23;19921;-82
2023/04/02 06:33:55;;;;;;;;;;;;;;;10.17;54.66;93843.31;5048080;23;19947;-80
2023/04/02 06:35:56;;;;;;;;;;;;;;;10.21;54.92;93835.94;5071543;23;19925;-83
2023/04/02 06:37:59;;;;;;;;;;;;;;;10.46;55.20;93836.56;5045232;23;19944;-81
2023/04/02 06:40:01;;;;;;;;;;;;;;;10.39;54.80;93841.69;5045169;23;19922;-80
2023/04/02 06:42:04;;;;;;;;;;;;;;;10.59;54.50;93839.38;5045400;23;19921;-74
2023/04/02 06:44:08;;;;;;;;;;;;;;;10.82;53.72;93836.66;5066924;23;19936;-75
2023/04/02 06:46:30;;;;;;;;;;;;;;;11.00;53.56;93838.09;5065699;23;19928;-75
2023/04/02 06:48:35;;;;;;;;;;;;;;;11.09;53.09;93844.03;5067011;23;19948;-76
2023/04/02 06:50:40;;;;;;;;;;;;;;;11.24;53.10;93837.75;5041438;23;19921;-75
2023/04/02 06:52:46;;;;;;;;;;;;;;;11.40;52.71;93846.41;5041737;23;19933;-75
2023/04/02 06:54:48;;;;;;;;;;;;;;;11.56;52.36;93843.56;5040631;23;19963;-75
2023/04/02 06:56:50;;;;;;;;;;;;;;;11.56;51.97;93850.63;5065540;23;19960;-75
2023/04/02 06:58:52;;;;;;;;;;;;;;;11.27;52.57;93850.53;5066125;23;20241;-76
2023/04/02 07:00:54;;;;;;;;;;;;;;;11.01;52.93;93852.81;5039620;23;19929;-73
2023/04/02 07:02:55;;;;;;;;;;;;;;;11.07;53.42;93860.75;5040997;23;19921;-75
2023/04/02 07:05:07;;;;;;;;;;;;;;;11.21;53.51;93863.56;5067443;23;19997;-75
2023/04/02 07:07:09;;;;;;;;;;;;;;;11.26;52.78;93855.94;5041110;23;19937;-74
2023/04/02 07:09:11;;;;;;;;;;;;;;;11.32;54.69;93859.66;5066958;23;19920;-74
2023/04/02 07:11:16;;;;;;;;;;;;;;;11.34;52.85;93865.53;5044255;23;19928;-80
2023/04/02 07:13:21;;;;;;;;;;;;;;;11.09;52.55;93857.94;5047519;23;20291;-79
2023/04/02 07:15:24;;;;;;;;;;;;;;;10.94;53.29;93865.81;5046760;23;20494;-82
2023/04/02 07:17:26;;;;;;;;;;;;;;;10.73;53.97;93861.31;5074248;23;19921;-81
2023/04/02 07:19:27;;;;;;;;;;;;;;;11.01;54.06;93869.38;5073929;23;19947;-81
2023/04/02 07:21:29;;;;;;;;;;;;;;;11.12;52.68;93869.88;5073463;23;19921;-79
2023/04/02 07:23:30;;;;;;;;;;;;;;;11.19;53.05;93874.22;5072107;23;19977;-81
2023/04/02 07:25:32;;;;;;;;;;;;;;;11.21;49.96;93879.28;5072521;23;19956;-81
2023/04/02 07:27:34;;;;;;;;;;;;;;;11.16;50.52;93876.38;5074629;23;20244;-82
2023/04/02 07:29:41;;;;;;;;;;;;;;;11.47;49.98;93873.53;5072832;23;19924;-80
2023/04/02 07:31:43;;;;;;;;;;;;;;;11.53;48.99;93874.59;5047504;23;20026;-82
2023/04/02 07:33:44;;;;;;;;;;;;;;;11.70;48.20;93873.38;5070600;23;19927;-83
2023/04/02 07:35:46;;;;;;;;;;;;;;;11.82;46.70;93877.13;5072808;23;20185;-80
2023/04/02 07:37:48;;;;;;;;;;;;;;;11.82;46.54;93876.31;5072962;23;20133;-79
2023/04/02 07:39:50;;;;;;;;;;;;;;;12.09;47.00;93873.00;5048737;23;19921;-81
2023/04/02 07:41:52;;;;;;;;;;;;;;;12.21;47.33;93877.72;5047868;23;19928;-81
2023/04/02 07:43:54;;;;;;;;;;;;;;;12.38;47.03;93873.81;5072202;23;19921;-83
2023/04/02 07:45:55;;;;;;;;;;;;;;;12.52;46.59;93874.75;5021750;23;19997;-82
2023/04/02 07:47:57;;;;;;;;;;;;;;;12.51;45.37;93875.75;5072024;23;19928;-81
2023/04/02 07:49:59;;;;;;;;;;;;;;;12.61;45.65;93870.16;5045907;23;20067;-81
2023/04/02 07:52:00;;;;;;;;;;;;;;;12.48;45.62;93868.25;5071547;23;19925;-81
2023/04/02 07:54:03;;;;;;;;;;;;;;;12.34;46.36;93872.56;5071755;23;19921;-81
2023/04/02 07:56:06;;;;;;;;;;;;;;;12.55;45.73;93873.56;5046795;23;19973;-81
2023/04/02 07:58:08;;;;;;;;;;;;;;;12.47;46.06;93872.66;5045639;23;19921;-81
2023/04/02 08:00:10;;;;;;;;;;;;;;;12.46;46.23;93872.88;5045651;23;20012;-82
2023/04/02 08:02:22;;;;;;;;;;;;;;;12.20;45.34;93871.66;5070439;23;19921;-83
2023/04/02 08:04:24;;;;;;;;;;;;;;;12.21;46.79;93875.91;5045566;23;19973;-81
2023/04/02 08:06:26;;;;;;;;;;;;;;;12.27;46.71;93876.97;5071700;23;19953;-81
2023/04/02 08:08:27;;;;;;;;;;;;;;;12.32;46.33;93895.59;5044907;23;19921;-82
2023/04/02 08:10:29;;;;;;;;;;;;;;;12.45;46.09;93893.09;5069875;23;20355;-80
2023/04/02 08:12:31;;;;;;;;;;;;;;;12.29;45.94;93894.16;5068759;23;19925;-74
2023/04/02 08:14:32;;;;;;;;;;;;;;;11.98;46.55;93891.03;5039446;23;19926;-74
2023/04/02 08:16:51;;;;;;;;;;;;;;;11.88;47.31;93892.16;5066397;23;19925;-75
2023/04/02 08:18:53;;;;;;;;;;;;;;;11.99;47.04;93898.72;5041124;23;19962;-74
2023/04/02 08:20:55;;;;;;;;;;;;;;;12.43;46.41;93895.09;5040940;23;19948;-75
2023/04/02 08:22:57;;;;;;;;;;;;;;;12.82;45.66;93887.66;5041161;23;19921;-75
2023/04/02 08:24:58;;;;;;;;;;;;;;;12.57;46.12;93900.44;5041025;23;20321;-76
2023/04/02 08:27:01;;;;;;;;;;;;;;;12.80;46.19;93898.38;5066670;23;19921;-79
2023/04/02 08:29:02;;;;;;;;;;;;;;;12.77;45.32;93895.31;5017868;23;20460;-73
2023/04/02 08:31:04;;;;;;;;;;;;;;;13.09;44.71;93904.41;5065084;23;19921;-74
2023/04/02 08:33:06;;;;;;;;;;;;;;;13.37;44.38;93896.50;5067372;23;19931;-75
2023/04/02 08:35:08;;;;;;;;;;;;;;;13.69;43.42;93896.84;5067789;23;19931;-75
2023/04/02 08:37:10;;;;;;;;;;;;;;;13.96;42.33;93905.63;5067074;23;19931;-73
2023/04/02 08:39:12;;;;;;;;;;;;;;;13.67;43.10;93901.47;5067358;23;19928;-74
2023/04/02 08:41:17;;;;;;;;;;;;;;;13.20;43.83;93900.44;5067434;23;20356;-74
2023/04/02 08:43:27;;;;;;;;;;;;;;;13.05;44.63;93898.72;5018181;23;20280;-73
2023/04/02 08:45:41;;;;;;;;;;;;;;;12.84;43.87;93901.44;5065727;23;19928;-75
2023/04/02 08:47:44;;;;;;;;;;;;;;;12.76;44.72;93915.53;5042193;23;19929;-73
2023/04/02 08:49:48;;;;;;;;;;;;;;;12.68;44.66;93898.09;5066931;23;20514;-73
2023/04/02 08:51:51;;;;;;;;;;;;;;;12.93;44.45;93895.03;5041563;23;19921;-74
2023/04/02 08:53:57;;;;;;;;;;;;;;;13.12;44.32;93901.41;5065902;23;19956;-73
2023/04/02 08:56:04;;;;;;;;;;;;;;;13.38;43.69;93892.88;5065971;23;20029;-73
2023/04/02 08:58:30;;;;;;;;;;;;;;;13.76;42.60;93896.84;5041741;23;20545;-73
2023/04/02 09:00:41;;;;;;;;;;;;;;;14.09;41.45;93896.94;5055229;23;19952;-74
2023/04/02 09:02:45;;;;;;;;;;;;;;;14.42;40.53;93896.16;5041816;23;19921;-74
2023/04/02 09:04:47;;;;;;;;;;;;;;;14.57;40.25;93886.25;5040634;23;19932;-73
2023/04/02 09:06:50;;;;;;;;;;;;;;;14.75;39.98;93893.53;5066314;23;19925;-73
2023/04/02 09:08:51;;;;;;;;;;;;;;;14.53;39.04;93887.63;5017433;23;19926;-73
2023/04/02 09:11:05;;;;;;;;;;;;;;;14.60;39.80;93896.38;5067016;23;19921;-73
2023/04/02 09:13:13;;;;;;;;;;;;;;;15.02;39.07;93891.69;5066539;23;20343;-72
2023/04/02 09:15:17;;;;;;;;;;;;;;;15.29;38.33;93888.97;5039770;23;19921;-73
2023/04/02 09:17:19;;;;;;;;;;;;;;;15.11;38.27;93884.34;5041024;23;19925;-73
2023/04/02 09:19:25;;;;;;;;;;;;;;;14.97;38.76;93893.31;5066228;23;19924;-75
2023/04/02 09:21:33;;;;;;;;;;;;;;;14.85;39.08;93893.13;5039965;23;20313;-73
2023/04/02 09:23:35;;;;;;;;;;;;;;;14.66;39.29;93887.66;5065854;23;19921;-73
2023/04/02 09:25:41;;;;;;;;;;;;;;;13.94;40.19;93902.38;5040964;23;19921;-73
2023/04/02 09:27:49;;;;;;;;;;;;;;;14.07;40.31;93896.31;5042253;23;20383;-75
2023/04/02 09:29:52;;;;;;;;;;;;;;;14.26;40.38;93881.53;5039868;23;19925;-73
2023/04/02 09:31:56;;;;;;;;;;;;;;;14.47;40.09;93883.19;5066011;23;20307;-75
2023/04/02 09:33:58;;;;;;;;;;;;;;;14.33;40.23;93880.53;5016660;23;20348;-73
2023/04/02 09:35:59;;;;;;;;;;;;;;;14.46;39.54;93886.84;5041124;23;20574;-73
2023/04/02 09:38:09;;;;;;;;;;;;;;;14.80;38.90;93883.19;5040931;23;19936;-75
2023/04/02 09:40:26;;;;;;;;;;;;;;;14.69;38.91;93887.28;5016804;23;19961;-75
2023/04/02 09:42:28;;;;;;;;;;;;;;;14.56;39.27;93884.63;5041633;23;19962;-76
2023/04/02 09:44:30;;;;;;;;;;;;;;;14.50;38.82;93883.59;5066109;23;19925;-73
2023/04/02 09:46:31;;;;;;;;;;;;;;;14.68;38.97;93876.91;5041378;23;19928;-76
2023/04/02 09:48:34;;;;;;;;;;;;;;;14.51;39.42;93879.13;5040905;23;19982;-73
2023/04/02 09:50:36;;;;;;;;;;;;;;;14.65;39.55;93870.25;5040776;23;19945;-74
2023/04/02 09:52:37;;;;;;;;;;;;;;;14.70;39.85;93880.16;5066040;23;19921;-73
2023/04/02 09:54:42;;;;;;;;;;;;;;;14.56;39.55;93874.06;5065932;23;19921;-76
2023/04/02 09:57:03;;;;;;;;;;;;;;;14.57;39.45;93870.44;5041017;23;19922;-76
2023/04/02 09:59:20;;;;;;;;;;;;;;;14.62;39.03;93867.19;5040634;23;19925;-73
2023/04/02 10:01:25;;;;;;;;;;;;;;;14.72;38.49;93863.13;5074101;23;19931;-81
2023/04/02 10:03:27;;;;;;;;;;;;;;;14.62;38.31;93865.34;5051098;23;19952;-84
2023/04/02 10:05:29;;;;;;;;;;;;;;;14.53;39.16;93870.00;5049994;23;19921;-82
2023/04/02 10:07:42;;;;;;;;;;;;;;;14.66;38.24;93868.41;5048561;23;20004;-83
2023/04/02 10:09:44;;;;;;;;;;;;;;;14.64;37.96;93863.31;5072549;23;19944;-83
2023/04/02 10:11:47;;;;;;;;;;;;;;;14.91;37.85;93856.19;5046614;23;19922;-78
2023/04/02 10:14:02;;;;;;;;;;;;;;;15.02;37.65;93860.03;5071646;23;19944;-79
2023/04/02 10:16:05;;;;;;;;;;;;;;;14.95;37.17;93859.25;5046056;23;19921;-78
2023/04/02 10:18:12;;;;;;;;;;;;;;;15.05;37.70;93854.31;5072991;23;19921;-81
2023/04/02 10:20:16;;;;;;;;;;;;;;;15.27;38.82;93843.50;5022136;23;19925;-80
2023/04/02 10:22:19;;;;;;;;;;;;;;;15.06;39.68;93853.31;5047128;23;19921;-84
2023/04/02 10:24:26;;;;;;;;;;;;;;;14.70;41.06;93843.25;5048091;23;19944;-84
2023/04/02 10:26:34;;;;;;;;;;;;;;;14.57;41.72;93856.47;5047469;23;19925;-80
2023/04/02 10:28:41;;;;;;;;;;;;;;;14.48;42.29;93847.91;5075544;23;19987;-85
2023/04/02 10:30:51;;;;;;;;;;;;;;;14.38;43.16;93845.69;5074097;23;19921;-82
2023/04/02 10:33:04;;;;;;;;;;;;;;;14.03;43.38;93853.78;5073227;23;19921;-80
2023/04/02 10:35:06;;;;;;;;;;;;;;;14.04;44.08;93855.38;5047464;23;19988;-82
2023/04/02 10:37:11;;;;;;;;;;;;;;;14.41;43.16;93853.19;5072538;23;19928;-83
2023/04/02 10:39:12;;;;;;;;;;;;;;;14.52;42.98;93854.41;5024505;23;19932;-80
2023/04/02 10:41:17;;;;;;;;;;;;;;;14.58;42.75;93850.97;5073173;23;20351;-81
2023/04/02 10:43:38;;;;;;;;;;;;;;;14.37;42.31;93851.16;5048841;23;20336;-81
2023/04/02 10:45:48;;;;;;;;;;;;;;;13.88;42.33;93848.69;5072999;23;19921;-81
2023/04/02 10:47:53;;;;;;;;;;;;;;;13.86;42.90;93855.97;5073138;23;19965;-80
2023/04/02 10:50:07;;;;;;;;;;;;;;;13.49;43.12;93858.09;5046609;23;20005;-80
2023/04/02 10:52:15;;;;;;;;;;;;;;;13.65;43.24;93856.13;5047975;23;19988;-83
2023/04/02 10:54:37;;;;;;;;;;;;;;;14.00;42.44;93850.72;5047719;23;20006;-84
2023/04/02 10:56:39;;;;;;;;;;;;;;;14.61;43.09;93849.78;5047727;23;19929;-80
2023/04/02 10:58:56;;;;;;;;;;;;;;;15.07;49.05;93839.09;5026737;23;19933;-82